Terminal Aerodrome Forecast
Issued by NWS

Home | Current Version | Previous Version | Graphics & Text | Print | Product List | Glossary On
Versions: 1 2 3 4 5 6 7 8 9 10 11 12 13 14 15 16 17 18 19
000
FTUS43 KICT 211731
TAFCNU
TAF
KCNU 211731Z 2118/2218 17006KT P6SM BKN200
     FM212100 16009KT P6SM BKN100
     FM220000 11007KT P6SM VCSH BKN080
     FM220500 04007KT 6SM -RA OVC035
     FM220900 02009KT 5SM -RA OVC015
     FM221200 36014G23KT P6SM OVC015
     FM221500 35014G24KT P6SM BKN040=

USA.gov is the U.S. government's official web portal to all federal, state and local government web resources and services.